createdAt,value
2023-04-21T00:04:56.763Z,3.93
2023-04-21T00:10:02.146Z,3.60
2023-04-21T00:15:06.469Z,3.43
2023-04-21T00:20:10.933Z,4.10
2023-04-21T00:25:13.391Z,3.60
2023-04-21T00:30:16.194Z,3.73
2023-04-21T00:35:18.514Z,3.73
2023-04-21T00:40:20.995Z,4.33
2023-04-21T00:45:23.293Z,3.03
2023-04-21T00:50:25.788Z,4.30
2023-04-21T00:55:28.152Z,4.73
2023-04-21T01:00:30.947Z,5.00
2023-04-21T01:05:33.344Z,4.47
2023-04-21T01:10:35.688Z,5.27
2023-04-21T01:15:38.020Z,5.13
2023-04-21T01:20:41.319Z,3.73
2023-04-21T01:25:43.675Z,3.80
2023-04-21T01:30:46.386Z,3.47
2023-04-21T01:35:49.272Z,4.00
2023-04-21T01:40:56.074Z,3.73
2023-04-21T01:45:58.449Z,4.00
2023-04-21T01:51:01.322Z,3.20
2023-04-21T01:56:03.786Z,3.90
2023-04-21T02:01:06.903Z,5.20
2023-04-21T02:06:10.375Z,4.13
2023-04-21T02:11:12.636Z,4.13
2023-04-21T02:16:16.202Z,6.03
2023-04-21T02:21:22.275Z,6.30
2023-04-21T02:26:24.832Z,4.00
2023-04-21T02:31:27.216Z,4.43
2023-04-21T02:36:29.998Z,2.50
2023-04-21T02:41:33.443Z,3.90
2023-04-21T02:46:36.682Z,3.40
2023-04-21T02:51:39.034Z,6.00
2023-04-21T02:56:41.344Z,2.53
2023-04-21T03:01:43.639Z,3.10
2023-04-21T03:06:45.993Z,2.60
2023-04-21T03:11:48.242Z,2.40
2023-04-21T03:16:50.737Z,2.70
2023-04-21T03:21:53.108Z,2.83
2023-04-21T03:26:56.929Z,2.70
2023-04-21T03:31:59.557Z,4.77
2023-04-21T03:37:02.629Z,2.43
2023-04-21T03:42:05.330Z,3.00
2023-04-21T03:47:07.577Z,4.50
2023-04-21T03:52:09.898Z,4.07
2023-04-21T03:57:13.076Z,3.70
2023-04-21T04:02:15.390Z,3.00
2023-04-21T04:07:18.030Z,2.40
2023-04-21T04:12:20.642Z,2.43
2023-04-21T04:17:23.275Z,3.00
2023-04-21T04:22:27.966Z,2.77
2023-04-21T04:27:30.242Z,4.53
2023-04-21T04:32:33.856Z,2.87
2023-04-21T04:37:40.058Z,2.60
2023-04-21T04:42:43.094Z,2.77
2023-04-21T04:47:46.210Z,1.87
2023-04-21T04:52:50.064Z,2.47
2023-04-21T04:57:52.548Z,1.50
2023-04-21T05:02:56.592Z,2.00
2023-04-21T05:07:59.197Z,1.80
2023-04-21T05:13:01.479Z,1.60
2023-04-21T05:18:04.130Z,2.00
2023-04-21T05:23:07.995Z,1.77
2023-04-21T05:28:10.370Z,1.70
2023-04-21T05:33:12.929Z,1.63
2023-04-21T05:38:15.455Z,2.10
2023-04-21T05:43:17.721Z,1.70
2023-04-21T05:48:20.655Z,1.80
2023-04-21T05:53:24.238Z,1.47
2023-04-21T05:58:26.628Z,1.50
2023-04-21T06:03:31.900Z,2.00
2023-04-21T06:08:34.376Z,2.27
2023-04-21T06:13:38.494Z,1.80
2023-04-21T06:18:41.429Z,2.00
2023-04-21T06:23:43.787Z,1.53
2023-04-21T06:28:47.856Z,1.80
2023-04-21T06:33:50.167Z,1.77
2023-04-21T06:38:52.580Z,1.50
2023-04-21T06:43:54.921Z,1.97
2023-04-21T06:48:57.331Z,2.00
2023-04-21T06:53:59.682Z,1.77
2023-04-21T06:59:01.962Z,1.50
2023-04-21T07:04:06.514Z,1.53
2023-04-21T07:09:09.138Z,1.47
2023-04-21T07:14:11.508Z,1.30
2023-04-21T07:19:13.907Z,1.53
2023-04-21T07:24:16.420Z,1.30
2023-04-21T07:29:18.990Z,1.23
2023-04-21T07:34:21.760Z,1.83
2023-04-21T07:39:27.188Z,1.70
2023-04-21T07:44:29.735Z,2.10
2023-04-21T07:49:32.541Z,1.87
2023-04-21T07:54:34.927Z,1.60
2023-04-21T07:59:37.380Z,1.43
2023-04-21T08:04:40.493Z,1.20
2023-04-21T08:09:43.968Z,1.40
2023-04-21T08:14:46.506Z,1.47
2023-04-21T08:19:50.233Z,1.70
2023-04-21T08:24:52.803Z,1.00
2023-04-21T08:30:11.035Z,1.30
2023-04-21T08:35:13.632Z,0.90
2023-04-21T08:40:15.951Z,1.30
2023-04-21T08:45:18.732Z,1.10
2023-04-21T08:50:21.799Z,1.40
2023-04-21T08:55:29.962Z,1.37
2023-04-21T09:00:33.770Z,1.30
2023-04-21T09:05:42.036Z,0.97
2023-04-21T09:10:46.860Z,1.37
2023-04-21T09:15:52.648Z,1.20
2023-04-21T09:21:10.816Z,1.00
2023-04-21T09:26:13.612Z,1.30
2023-04-21T09:31:21.148Z,1.17
2023-04-21T09:36:28.815Z,1.60
2023-04-21T09:41:32.483Z,1.60
2023-04-21T09:46:37.161Z,1.00
2023-04-21T09:52:05.860Z,1.03
2023-04-21T09:57:04.978Z,1.37
2023-04-21T10:02:08.875Z,1.53
2023-04-21T10:07:12.014Z,1.63
2023-04-21T10:12:14.974Z,0.90
2023-04-21T10:17:18.150Z,1.37
2023-04-21T10:22:31.680Z,1.03
2023-04-21T10:27:41.342Z,1.10
2023-04-21T10:32:45.768Z,2.00
2023-04-21T10:37:50.343Z,1.20
2023-04-21T10:42:52.818Z,1.10
2023-04-21T10:47:55.295Z,1.10
2023-04-21T10:53:10.527Z,1.50
2023-04-21T10:58:17.125Z,1.40
2023-04-21T11:03:19.650Z,1.03
2023-04-21T11:08:22.230Z,1.50
2023-04-21T11:13:26.942Z,1.40
2023-04-21T11:18:48.530Z,1.70
2023-04-21T11:23:52.997Z,1.57
2023-04-21T11:28:55.448Z,1.50
2023-04-21T11:33:59.315Z,1.60
2023-04-21T11:39:10.244Z,1.80
2023-04-21T11:44:13.384Z,1.90
2023-04-21T11:49:17.502Z,1.60
2023-04-21T11:54:22.371Z,1.50
2023-04-21T11:59:26.609Z,1.70
2023-04-21T12:04:30.446Z,1.30
2023-04-21T12:09:36.701Z,1.50
2023-04-21T12:14:39.841Z,1.37
2023-04-21T12:19:43.187Z,1.27
2023-04-21T12:24:45.834Z,1.10
2023-04-21T12:29:48.132Z,0.90
2023-04-21T12:34:50.782Z,1.30
2023-04-21T12:39:53.095Z,1.10
2023-04-21T12:44:55.473Z,0.90
2023-04-21T12:49:57.871Z,1.00
2023-04-21T12:55:00.286Z,1.07
2023-04-21T13:00:02.609Z,1.67
2023-04-21T13:05:07.625Z,1.20
2023-04-21T13:10:10.884Z,1.27
2023-04-21T13:15:13.294Z,1.57
2023-04-21T13:20:15.761Z,1.33
2023-04-21T13:25:18.328Z,3.20
2023-04-21T13:30:21.749Z,1.37
2023-04-21T13:35:24.218Z,2.20
2023-04-21T13:40:26.706Z,2.07
2023-04-21T13:45:29.127Z,1.20
2023-04-21T13:50:32.778Z,1.00
2023-04-21T13:55:35.348Z,1.30
2023-04-21T14:00:39.207Z,1.23
2023-04-21T14:05:41.798Z,1.00
2023-04-21T14:10:45.331Z,1.10
2023-04-21T14:15:47.767Z,1.57
2023-04-21T14:20:50.437Z,1.80
2023-04-21T14:25:54.967Z,1.20
2023-04-21T14:30:57.650Z,1.90
2023-04-21T14:36:00.428Z,1.30
2023-04-21T14:41:05.409Z,1.20
2023-04-21T14:46:07.986Z,1.40
2023-04-21T14:51:10.588Z,1.40
2023-04-21T14:56:13.186Z,1.30
2023-04-21T15:01:15.632Z,1.50
2023-04-21T15:06:18.242Z,1.30
2023-04-21T15:11:20.812Z,2.00
2023-04-21T15:16:23.302Z,1.57
2023-04-21T15:21:25.688Z,1.80
2023-04-21T15:26:30.805Z,1.27
2023-04-21T15:31:33.357Z,1.40
2023-04-21T15:36:36.225Z,1.50
2023-04-21T15:41:38.746Z,2.03
2023-04-21T15:46:41.599Z,1.37
2023-04-21T15:51:44.189Z,1.60
2023-04-21T15:56:46.802Z,2.03
2023-04-21T16:01:49.394Z,1.80
2023-04-21T16:06:52.140Z,1.90
2023-04-21T16:11:54.663Z,3.07
2023-04-21T16:16:57.267Z,1.43
2023-04-21T16:21:59.980Z,1.50
2023-04-21T16:27:03.425Z,1.80
2023-04-21T16:32:05.981Z,1.33
2023-04-21T16:37:08.509Z,1.40
2023-04-21T16:42:11.129Z,1.60
2023-04-21T16:47:13.608Z,1.80
2023-04-21T16:52:16.198Z,1.93
2023-04-21T16:57:19.825Z,2.10
2023-04-21T17:02:22.441Z,2.13
2023-04-21T17:07:24.843Z,2.00
2023-04-21T17:12:27.966Z,2.67
2023-04-21T17:17:45.090Z,1.73
2023-04-21T17:22:47.740Z,1.60
2023-04-21T17:27:50.266Z,1.70
2023-04-21T17:33:04.053Z,2.30
2023-04-21T17:38:15.031Z,2.60
2023-04-21T17:43:17.542Z,1.90
2023-04-21T17:48:20.636Z,2.70
2023-04-21T17:53:23.075Z,2.90
2023-04-21T17:58:28.742Z,3.50
2023-04-21T18:03:31.491Z,4.70
2023-04-21T18:08:34.600Z,5.53
2023-04-21T18:13:37.085Z,5.63
2023-04-21T18:18:39.858Z,4.53
2023-04-21T18:23:44.013Z,5.70
2023-04-21T18:28:46.767Z,7.33
2023-04-21T18:33:49.358Z,8.10
2023-04-21T18:38:51.879Z,6.80
2023-04-21T18:43:54.732Z,11.90
2023-04-21T18:48:57.169Z,7.33
2023-04-21T18:53:59.554Z,9.87
2023-04-21T18:59:02.073Z,10.57
2023-04-21T19:04:04.685Z,10.73
2023-04-21T19:09:07.202Z,7.50
2023-04-21T19:14:09.638Z,7.87
2023-04-21T19:19:12.576Z,8.73
2023-04-21T19:24:14.863Z,5.67
2023-04-21T19:29:18.737Z,6.73
2023-04-21T19:34:21.862Z,7.50
2023-04-21T19:39:24.367Z,6.77
2023-04-21T19:44:26.865Z,7.40
2023-04-21T19:49:29.534Z,8.53
2023-04-21T19:54:32.557Z,8.30
2023-04-21T19:59:35.392Z,7.73
2023-04-21T20:04:38.548Z,6.20
2023-04-21T20:09:41.082Z,5.13
2023-04-21T20:14:43.576Z,4.27
2023-04-21T20:19:47.175Z,4.63
2023-04-21T20:24:49.830Z,4.37
2023-04-21T20:29:52.529Z,4.40
2023-04-21T20:34:54.965Z,4.53
2023-04-21T20:39:57.483Z,5.03
2023-04-21T20:45:02.529Z,4.70
2023-04-21T20:50:07.681Z,4.37
2023-04-21T20:55:10.471Z,5.43
2023-04-21T21:00:13.522Z,4.97
2023-04-21T21:05:16.080Z,4.63
2023-04-21T21:10:18.740Z,4.20
2023-04-21T21:15:22.421Z,4.73
2023-04-21T21:20:25.011Z,4.73
2023-04-21T21:25:27.524Z,4.50
2023-04-21T21:30:30.055Z,4.27
2023-04-21T21:35:32.905Z,4.03
2023-04-21T21:40:35.588Z,4.90
2023-04-21T21:45:39.156Z,4.57
2023-04-21T21:50:41.619Z,5.27
2023-04-21T21:55:44.021Z,5.07
2023-04-21T22:00:51.964Z,5.63
2023-04-21T22:05:54.444Z,4.73
2023-04-21T22:10:57.511Z,5.83
2023-04-21T22:16:00.010Z,4.20
2023-04-21T22:21:02.755Z,4.07
2023-04-21T22:26:05.211Z,4.53
2023-04-21T22:31:07.919Z,4.30
2023-04-21T22:36:11.419Z,4.53
2023-04-21T22:41:14.388Z,4.77
2023-04-21T22:46:16.824Z,4.40
2023-04-21T22:51:21.498Z,5.00
2023-04-21T22:56:24.259Z,4.70
2023-04-21T23:01:26.800Z,5.57
2023-04-21T23:06:29.271Z,6.50
2023-04-21T23:11:31.892Z,6.43
2023-04-21T23:16:34.265Z,5.87
2023-04-21T23:21:36.779Z,5.77
2023-04-21T23:26:39.234Z,5.07
2023-04-21T23:31:41.714Z,5.43
2023-04-21T23:36:44.114Z,5.60
2023-04-21T23:41:46.589Z,4.70
2023-04-21T23:46:49.151Z,4.80
2023-04-21T23:51:51.713Z,4.53
2023-04-21T23:56:54.269Z,5.40
